Time;durP1;ratioP1;P1;durP2;ratioP2;P2;SDS_P1;SDS_P2;PMS_P1;PMS_P2;Temp;Humidity;BMP_temperature;BMP_pressure;BME280_temperature;BME280_humidity;BME280_pressure;Samples;Min_cycle;Max_cycle;Signal;HPM_P1;HPM_P2
2022/01/31 00:01:36;;;;;;;0.50;0.50;;;;;;;-5.10;86.61;96880.34;5032350;28;20053;-80
2022/01/31 00:04:03;;;;;;;0.82;0.82;;;;;;;-5.08;86.68;96878.34;5030913;28;20045;-80
2022/01/31 00:06:30;;;;;;;0.70;0.70;;;;;;;-5.07;86.46;96874.69;5032158;28;20045;-79
2022/01/31 00:08:58;;;;;;;0.60;0.60;;;;;;;-5.04;86.48;96874.28;5031865;28;20049;-81
2022/01/31 00:11:25;;;;;;;0.90;0.90;;;;;;;-5.04;86.50;96874.28;5031991;28;20052;-80
2022/01/31 00:14:09;;;;;;;0.70;0.70;;;;;;;-5.01;86.69;96858.94;5031212;28;20084;-80
2022/01/31 00:16:36;;;;;;;0.70;0.70;;;;;;;-5.01;86.38;96856.31;5032118;28;20080;-81
2022/01/31 00:19:03;;;;;;;0.75;0.75;;;;;;;-5.00;86.45;96859.75;5031920;28;20128;-80
2022/01/31 00:21:30;;;;;;;0.60;0.60;;;;;;;-5.00;86.28;96867.63;5032110;28;20046;-81
2022/01/31 00:23:57;;;;;;;0.65;0.65;;;;;;;-5.01;86.15;96858.13;5031068;28;20127;-81
2022/01/31 00:26:24;;;;;;;0.80;0.80;;;;;;;-5.00;86.26;96867.63;5031748;28;20059;-80
2022/01/31 00:28:51;;;;;;;0.60;0.60;;;;;;;-4.99;86.38;96868.44;5031559;28;20092;-80
2022/01/31 00:31:19;;;;;;;0.88;0.88;;;;;;;-4.97;86.15;96859.34;5063778;28;20045;-81
2022/01/31 00:33:47;;;;;;;0.65;0.65;;;;;;;-4.96;86.19;96855.72;5030202;28;20560;-80
2022/01/31 00:36:17;;;;;;;0.75;0.75;;;;;;;-4.96;86.23;96855.72;5031747;28;20049;-80
2022/01/31 00:38:44;;;;;;;0.60;0.60;;;;;;;-4.96;86.10;96857.50;5040621;28;20103;-80
2022/01/31 00:41:11;;;;;;;0.80;0.80;;;;;;;-4.97;86.06;96851.44;5051614;28;20186;-79
2022/01/31 00:43:43;;;;;;;0.68;0.68;;;;;;;-4.98;85.87;96852.47;5051386;28;20044;-78
2022/01/31 00:46:12;;;;;;;0.70;0.70;;;;;;;-4.95;86.14;96851.25;5050334;28;20496;-79
2022/01/31 00:48:43;;;;;;;0.70;0.70;;;;;;;-4.96;86.14;96855.72;5051492;28;20490;-79
2022/01/31 00:51:11;;;;;;;0.80;0.80;;;;;;;-4.97;86.01;96855.91;5051294;28;20419;-80
2022/01/31 00:53:40;;;;;;;0.75;0.75;;;;;;;-4.94;86.18;96837.88;5050161;28;20512;-79
2022/01/31 00:56:07;;;;;;;0.73;0.73;;;;;;;-4.94;86.09;96848.41;5049890;28;20522;-80
2022/01/31 00:58:38;;;;;;;0.80;0.80;;;;;;;-4.93;85.97;96838.72;5050274;28;20470;-80
2022/01/31 01:01:06;;;;;;;0.63;0.63;;;;;;;-4.96;85.99;96841.72;5051032;28;20134;-80
2022/01/31 01:03:33;;;;;;;0.73;0.73;;;;;;;-4.93;86.12;96836.09;5033356;28;20045;-79
2022/01/31 01:06:00;;;;;;;0.65;0.65;;;;;;;-4.90;86.19;96833.88;5049805;28;20045;-80
2022/01/31 01:08:29;;;;;;;0.90;0.90;;;;;;;-4.91;85.91;96831.41;5049996;28;20420;-80
2022/01/31 01:10:56;;;;;;;0.80;0.80;;;;;;;-4.94;86.00;96823.94;5051116;28;20045;-80
2022/01/31 01:13:24;;;;;;;0.70;0.70;;;;;;;-4.91;85.90;96834.88;5051260;28;20471;-80
2022/01/31 01:15:51;;;;;;;0.80;0.80;;;;;;;-4.92;85.99;96830.63;5049916;28;20118;-81
2022/01/31 01:18:18;;;;;;;0.60;0.60;;;;;;;-4.94;85.80;96831.81;5050972;28;20049;-80
2022/01/31 01:20:45;;;;;;;0.60;0.60;;;;;;;-4.93;85.79;96829.00;5050012;28;20044;-80
2022/01/31 01:23:12;;;;;;;0.75;0.75;;;;;;;-4.90;86.07;96831.22;5051133;28;20048;-81
2022/01/31 01:25:39;;;;;;;0.63;0.63;;;;;;;-4.88;85.99;96831.03;5050358;28;20057;-80
2022/01/31 01:28:06;;;;;;;0.80;0.80;;;;;;;-4.86;85.87;96842.16;5054993;28;20060;-80
2022/01/31 01:30:34;;;;;;;0.85;0.85;;;;;;;-4.86;85.97;96848.25;5054078;28;20041;-80
2022/01/31 01:33:17;;;;;;;0.70;0.70;;;;;;;-4.86;86.18;96844.78;5036950;28;20049;-80
2022/01/31 01:35:50;;;;;;;0.75;0.75;;;;;;;-4.88;86.07;96837.09;5038177;28;20055;-80
2022/01/31 01:38:27;;;;;;;0.77;0.77;;;;;;;-4.84;86.15;96842.78;5055539;28;20055;-80
2022/01/31 01:40:56;;;;;;;0.70;0.70;;;;;;;-4.89;85.86;96834.66;5053742;28;20207;-80
2022/01/31 01:43:23;;;;;;;0.70;0.70;;;;;;;-4.85;86.06;96839.34;5053707;28;20040;-80
2022/01/31 01:45:52;;;;;;;0.68;0.68;;;;;;;-4.79;86.07;96846.41;5054542;28;20098;-81
2022/01/31 01:48:20;;;;;;;0.80;0.80;;;;;;;-4.84;86.01;96845.41;5053786;28;20057;-81
2022/01/31 01:50:50;;;;;;;0.77;0.77;;;;;;;-4.85;86.15;96849.06;5053237;28;20594;-80
2022/01/31 01:53:19;;;;;;;0.80;0.80;;;;;;;-4.82;86.04;96841.56;5021000;28;20144;-81
2022/01/31 01:55:47;;;;;;;0.75;0.75;;;;;;;-4.82;86.01;96846.03;5053609;28;20500;-80
2022/01/31 01:58:16;;;;;;;0.70;0.70;;;;;;;-4.84;86.06;96833.06;5053507;28;20452;-80
2022/01/31 02:00:51;;;;;;;0.70;0.70;;;;;;;-4.79;86.23;96841.16;5052906;28;20075;-80
2022/01/31 02:03:38;;;;;;;0.70;0.70;;;;;;;-4.80;86.02;96838.75;5053387;28;20103;-81
2022/01/31 02:06:06;;;;;;;0.80;0.80;;;;;;;-4.81;86.29;96840.56;5054142;28;20526;-80
2022/01/31 02:08:40;;;;;;;0.70;0.70;;;;;;;-4.79;86.17;96830.63;5053124;28;20111;-80
2022/01/31 02:11:11;;;;;;;0.60;0.60;;;;;;;-4.76;86.36;96839.13;5037464;28;20464;-80
2022/01/31 02:13:43;;;;;;;0.57;0.57;;;;;;;-4.74;86.31;96840.56;5053201;28;20049;-79
2022/01/31 02:16:10;;;;;;;0.55;0.55;;;;;;;-4.72;86.24;96829.84;5054020;28;20053;-80
2022/01/31 02:18:45;;;;;;;0.73;0.73;;;;;;;-4.75;86.44;96838.16;5054206;28;20127;-80
2022/01/31 02:21:24;;;;;;;0.80;0.80;;;;;;;-4.73;86.47;96838.75;5052674;28;20495;-80
2022/01/31 02:23:52;;;;;;;0.80;0.80;;;;;;;-4.72;86.58;96835.09;5035819;28;20052;-80
2022/01/31 02:26:38;;;;;;;0.70;0.70;;;;;;;-4.71;86.75;96840.19;5052916;28;20408;-79
2022/01/31 02:29:26;;;;;;;0.70;0.70;;;;;;;-4.69;86.63;96837.34;5053683;28;20076;-80
2022/01/31 02:31:53;;;;;;;0.70;0.70;;;;;;;-4.68;86.76;96842.41;5052518;28;20041;-80
2022/01/31 02:34:20;;;;;;;0.82;0.82;;;;;;;-4.67;86.62;96837.94;5053418;28;20486;-80
2022/01/31 02:36:50;;;;;;;0.75;0.75;;;;;;;-4.71;86.34;96834.09;5052033;28;20064;-81
2022/01/31 02:39:17;;;;;;;0.80;0.80;;;;;;;-4.72;86.53;96840.38;5053950;28;20045;-80
2022/01/31 02:41:46;;;;;;;0.50;0.50;;;;;;;-4.68;86.65;96839.78;5053565;28;20072;-81
2022/01/31 02:44:16;;;;;;;0.77;0.77;;;;;;;-4.67;86.42;96838.75;5053627;28;20054;-81
2022/01/31 02:47:19;;;;;;;0.80;0.80;;;;;;;-4.73;86.83;96842.19;5049440;28;20051;-79
2022/01/31 02:49:52;;;;;;;0.75;0.75;;;;;;;-4.72;86.88;96843.00;5035927;28;20423;-81
2022/01/31 02:52:21;;;;;;;0.60;0.60;;;;;;;-4.73;86.85;96838.75;5052110;28;20049;-81
2022/01/31 02:54:48;;;;;;;0.70;0.70;;;;;;;-4.66;86.93;96842.19;5054046;28;20511;-81
2022/01/31 02:57:17;;;;;;;0.70;0.70;;;;;;;-4.61;86.84;96842.41;5060671;28;20400;-80
2022/01/31 02:59:44;;;;;;;0.90;0.90;;;;;;;-4.59;86.87;96846.44;5053442;28;20071;-81
2022/01/31 03:02:11;;;;;;;0.88;0.88;;;;;;;-4.61;86.83;96830.06;5052037;28;20210;-80
2022/01/31 03:04:38;;;;;;;0.60;0.60;;;;;;;-4.62;86.83;96841.59;5053632;28;20049;-81
2022/01/31 03:07:10;;;;;;;0.60;0.60;;;;;;;-4.63;86.92;96844.44;5051910;28;20069;-81
2022/01/31 03:09:38;;;;;;;0.60;0.60;;;;;;;-4.62;86.93;96846.06;5052052;28;20140;-79
2022/01/31 03:12:09;;;;;;;0.50;0.50;;;;;;;-4.65;86.63;96842.00;5051684;28;20521;-80
2022/01/31 03:14:44;;;;;;;0.70;0.70;;;;;;;-4.57;86.78;96846.25;5052019;28;20044;-80
2022/01/31 03:17:31;;;;;;;0.90;0.90;;;;;;;-4.58;86.68;96852.56;5053047;28;20045;-81
2022/01/31 03:19:59;;;;;;;0.73;0.73;;;;;;;-4.57;86.74;96851.53;5051516;28;20048;-80
2022/01/31 03:22:26;;;;;;;0.60;0.60;;;;;;;-4.58;86.78;96845.47;5051604;28;20045;-81
2022/01/31 03:24:53;;;;;;;0.80;0.80;;;;;;;-4.59;86.60;96856.97;5051505;28;20144;-82
2022/01/31 03:27:20;;;;;;;0.73;0.73;;;;;;;-4.69;86.69;96846.03;5085566;28;20045;-81
2022/01/31 03:29:48;;;;;;;0.63;0.63;;;;;;;-4.69;86.72;96845.22;5051436;28;20053;-80
2022/01/31 03:32:15;;;;;;;0.70;0.70;;;;;;;-4.70;86.89;96843.63;5051194;28;20508;-79
2022/01/31 03:34:42;;;;;;;0.57;0.57;;;;;;;-4.72;86.99;96843.81;5051259;28;20053;-79
2022/01/31 03:37:09;;;;;;;0.80;0.80;;;;;;;-4.70;87.15;96843.63;5051182;28;20091;-81
2022/01/31 03:39:37;;;;;;;0.80;0.80;;;;;;;-4.66;87.27;96850.91;5034142;28;20381;-79
2022/01/31 03:42:04;;;;;;;0.60;0.60;;;;;;;-4.64;87.25;96842.81;5050445;28;20589;-79
2022/01/31 03:44:31;;;;;;;0.90;0.90;;;;;;;-4.63;87.25;96841.81;5051102;28;20049;-80
2022/01/31 03:46:59;;;;;;;0.80;0.80;;;;;;;-4.62;87.14;96846.84;5034429;28;20462;-80
2022/01/31 03:49:27;;;;;;;0.70;0.70;;;;;;;-4.59;87.01;96840.38;4707969;28;10000708;-82
2022/01/31 03:52:02;;;;;;;;;;;;;;;-4.57;87.29;96844.44;5067433;28;20052;-81
2022/01/31 03:54:40;;;;;;;0.77;0.77;;;;;;;-4.54;87.16;96837.16;5051730;28;19932;-81
2022/01/31 03:57:07;;;;;;;0.60;0.60;;;;;;;-4.53;87.08;96839.59;5068366;28;20058;-81
2022/01/31 03:59:57;;;;;;;0.73;0.73;;;;;;;-4.52;86.97;96838.56;5064992;28;20060;-81
2022/01/31 04:02:25;;;;;;;0.65;0.65;;;;;;;-4.51;87.05;96840.19;5066611;28;20644;-81
2022/01/31 04:04:52;;;;;;;0.82;0.82;;;;;;;-4.58;86.90;96840.19;5067758;28;20072;-81
2022/01/31 04:07:19;;;;;;;0.70;0.70;;;;;;;-4.53;86.80;96829.06;5067905;28;20098;-79
2022/01/31 04:09:46;;;;;;;0.70;0.70;;;;;;;-4.54;87.38;96832.69;5067869;28;20056;-83
2022/01/31 04:12:13;;;;;;;0.80;0.80;;;;;;;-4.45;87.18;96836.75;5068106;28;20047;-80
2022/01/31 04:14:41;;;;;;;0.80;0.80;;;;;;;-4.46;87.02;96837.75;5071593;28;20070;-81
2022/01/31 04:17:12;;;;;;;0.70;0.70;;;;;;;-4.51;87.37;96832.28;5071405;28;20056;-81
2022/01/31 04:19:40;;;;;;;0.80;0.80;;;;;;;-4.43;87.27;96842.63;5070251;28;20055;-80
2022/01/31 04:22:14;;;;;;;0.70;0.70;;;;;;;-4.45;87.48;96835.94;5071201;28;20131;-82
2022/01/31 04:24:41;;;;;;;0.85;0.85;;;;;;;-4.43;87.60;96832.09;5071126;28;20876;-82
2022/01/31 04:27:16;;;;;;;0.70;0.70;;;;;;;-4.43;87.55;96829.47;5071138;28;20143;-82
2022/01/31 04:29:45;;;;;;;0.80;0.80;;;;;;;-4.52;87.50;96814.88;5070177;28;20079;-82
2022/01/31 04:32:12;;;;;;;0.80;0.80;;;;;;;-4.51;87.48;96824.38;5070587;28;20875;-82
2022/01/31 04:34:40;;;;;;;0.77;0.77;;;;;;;-4.50;87.05;96823.38;5053803;28;20119;-81
2022/01/31 04:37:08;;;;;;;0.70;0.70;;;;;;;-4.48;87.21;96821.38;5070976;28;20105;-83
2022/01/31 04:39:35;;;;;;;0.88;0.88;;;;;;;-4.38;87.21;96829.66;5071054;28;20479;-82
2022/01/31 04:42:03;;;;;;;0.80;0.80;;;;;;;-4.34;87.11;96840.59;5069364;28;20049;-82
2022/01/31 04:44:30;;;;;;;0.85;0.85;;;;;;;-4.33;87.08;96836.13;5069065;28;20044;-82
2022/01/31 04:46:57;;;;;;;0.90;0.90;;;;;;;-4.35;87.02;96839.00;5070092;28;20122;-81
2022/01/31 04:49:25;;;;;;;0.73;0.73;;;;;;;-4.37;86.80;96831.28;5070529;28;20052;-81
2022/01/31 04:51:54;;;;;;;0.77;0.77;;;;;;;-4.33;87.21;96838.75;5070198;28;20352;-81
2022/01/31 04:54:21;;;;;;;0.88;0.88;;;;;;;-4.31;87.09;96827.00;5070701;28;20036;-82
2022/01/31 04:56:51;;;;;;;0.70;0.70;;;;;;;-4.31;86.78;96820.94;5070945;28;20048;-81
2022/01/31 04:59:21;;;;;;;0.65;0.65;;;;;;;-4.26;86.78;96821.94;5070464;28;20423;-81
2022/01/31 05:01:49;;;;;;;0.90;0.90;;;;;;;-4.28;86.67;96831.91;5070900;28;20495;-82
2022/01/31 05:04:16;;;;;;;0.80;0.80;;;;;;;-4.25;86.63;96823.59;5070292;28;20044;-82
2022/01/31 05:06:45;;;;;;;0.90;0.90;;;;;;;-4.31;86.63;96832.28;5070860;28;20048;-81
2022/01/31 05:09:13;;;;;;;0.65;0.65;;;;;;;-4.29;86.64;96840.78;5070623;28;20040;-82
2022/01/31 05:11:40;;;;;;;0.80;0.80;;;;;;;-4.30;86.80;96827.81;5069359;28;20048;-81
2022/01/31 05:14:08;;;;;;;0.82;0.82;;;;;;;-4.28;86.85;96837.16;5070282;28;20114;-81
2022/01/31 05:16:35;;;;;;;0.60;0.60;;;;;;;-4.36;86.65;96829.44;5053968;28;20496;-81
2022/01/31 05:19:02;;;;;;;0.93;0.93;;;;;;;-4.25;86.86;96843.84;5040744;28;20512;-82
2022/01/31 05:21:30;;;;;;;0.82;0.82;;;;;;;-4.24;86.85;96843.63;5029983;28;20497;-81
2022/01/31 05:23:57;;;;;;;0.73;0.73;;;;;;;-4.26;86.96;96839.59;5029227;28;20064;-83
2022/01/31 05:26:24;;;;;;;0.80;0.80;;;;;;;-4.17;87.00;96848.91;5030611;28;20321;-82
2022/01/31 05:28:52;;;;;;;0.90;0.90;;;;;;;-4.20;86.78;96847.50;5038300;28;20049;-82
2022/01/31 05:31:19;;;;;;;0.73;0.73;;;;;;;-4.23;86.84;96844.44;5045069;28;20455;-81
2022/01/31 05:33:46;;;;;;;0.70;0.70;;;;;;;-4.28;86.75;96846.88;5040034;28;20046;-80
2022/01/31 05:36:14;;;;;;;0.90;0.90;;;;;;;-4.29;86.99;96845.25;5030229;28;20072;-79
2022/01/31 05:38:41;;;;;;;0.80;0.80;;;;;;;-4.28;86.80;96855.59;5039815;28;20048;-80
2022/01/31 05:41:11;;;;;;;0.80;0.80;;;;;;;-4.34;86.90;96847.69;5038864;28;20042;-81
2022/01/31 05:43:38;;;;;;;0.80;0.80;;;;;;;-4.37;87.37;96847.06;5040270;28;20173;-82
2022/01/31 05:46:05;;;;;;;0.80;0.80;;;;;;;-4.30;87.36;96849.72;5049911;28;20045;-80
2022/01/31 05:48:33;;;;;;;0.80;0.80;;;;;;;-4.37;87.47;96857.63;4692197;28;10000147;-84
2022/01/31 05:51:04;;;;;;;0.70;0.70;;;;;;;-4.34;87.62;96866.13;5042828;28;20053;-80
2022/01/31 05:53:31;;;;;;;0.75;0.75;;;;;;;-4.31;87.80;96850.72;5032303;28;20053;-81
2022/01/31 05:55:58;;;;;;;0.80;0.80;;;;;;;-4.30;87.70;96849.72;5026971;28;20103;-80
2022/01/31 05:58:25;;;;;;;0.70;0.70;;;;;;;-4.28;87.90;96845.06;5033638;28;20053;-82
2022/01/31 06:00:52;;;;;;;0.85;0.85;;;;;;;-4.19;88.00;96854.38;5043974;28;20099;-81
2022/01/31 06:03:20;;;;;;;0.80;0.80;;;;;;;-4.15;87.84;96849.53;5046632;28;20454;-80
2022/01/31 06:05:47;;;;;;;0.90;0.90;;;;;;;-4.08;87.92;96852.13;5037073;28;20053;-79
2022/01/31 06:08:14;;;;;;;0.85;0.85;;;;;;;-4.02;87.77;96849.50;5035422;28;20041;-81
2022/01/31 06:10:44;;;;;;;0.80;0.80;;;;;;;-3.98;87.73;96853.31;5030570;28;20057;-80
2022/01/31 06:13:11;;;;;;;0.90;0.90;;;;;;;-3.95;87.86;96852.09;5036315;28;20361;-81
2022/01/31 06:15:40;;;;;;;0.80;0.80;;;;;;;-3.93;87.54;96855.34;5030115;28;20058;-81
2022/01/31 06:18:07;;;;;;;0.90;0.90;;;;;;;-3.96;87.51;96847.88;5041754;28;20503;-81
2022/01/31 06:20:34;;;;;;;0.90;0.90;;;;;;;-3.93;87.40;96850.88;5032956;28;20079;-82
2022/01/31 06:23:01;;;;;;;0.85;0.85;;;;;;;-3.89;87.29;96845.22;5038469;28;20102;-82
2022/01/31 06:25:29;;;;;;;0.90;0.90;;;;;;;-3.80;87.19;96841.34;5044199;28;20094;-79
2022/01/31 06:27:56;;;;;;;0.88;0.88;;;;;;;-3.79;87.03;96838.50;5035602;28;20132;-81
2022/01/31 06:30:25;;;;;;;0.80;0.80;;;;;;;-3.73;86.93;96834.22;5020153;28;20463;-81
2022/01/31 06:32:53;;;;;;;1.00;1.00;;;;;;;-3.74;86.76;96833.44;5033271;28;20100;-81
2022/01/31 06:35:21;;;;;;;0.75;0.75;;;;;;;-3.69;86.88;96835.44;5042757;28;20435;-81
2022/01/31 06:37:48;;;;;;;0.90;0.90;;;;;;;-3.66;86.74;96835.03;5041866;28;20056;-81
2022/01/31 06:40:15;;;;;;;0.95;0.95;;;;;;;-3.55;87.01;96838.84;5043234;28;20185;-82
2022/01/31 06:42:42;;;;;;;0.80;0.80;;;;;;;-3.48;86.86;96826.44;5042497;28;20499;-82
2022/01/31 06:45:10;;;;;;;0.80;0.80;;;;;;;-3.40;86.65;96828.84;5038532;28;20149;-82
2022/01/31 06:47:38;;;;;;;1.00;1.00;;;;;;;-3.39;86.54;96840.22;5046366;28;20063;-82
2022/01/31 06:50:07;;;;;;;0.80;0.80;;;;;;;-3.36;86.25;96829.25;5037077;28;20049;-82
2022/01/31 06:52:38;;;;;;;0.90;0.90;;;;;;;-3.30;86.20;96828.41;5041284;28;20061;-81
2022/01/31 06:55:06;;;;;;;0.80;0.80;;;;;;;-3.30;86.26;96825.78;5049489;28;20064;-82
2022/01/31 06:57:34;;;;;;;0.80;0.80;;;;;;;-3.36;86.26;96834.53;5031397;28;20504;-83
2022/01/31 07:00:05;;;;;;;0.80;0.80;;;;;;;-3.41;86.30;96834.34;5045306;28;20053;-81
2022/01/31 07:02:33;;;;;;;0.93;0.93;;;;;;;-3.46;86.25;96828.91;5048108;28;20041;-81
2022/01/31 07:05:01;;;;;;;0.88;0.88;;;;;;;-3.46;86.34;96842.09;5040270;28;20080;-83
2022/01/31 07:07:29;;;;;;;0.90;0.90;;;;;;;-3.43;86.27;96839.03;5029365;28;20062;-83
2022/01/31 07:09:56;;;;;;;1.00;1.00;;;;;;;-3.39;86.23;96837.56;5038274;28;20050;-82
2022/01/31 07:12:31;;;;;;;0.90;0.90;;;;;;;-3.39;86.55;96841.03;5047507;28;20317;-82
2022/01/31 07:15:00;;;;;;;0.90;0.90;;;;;;;-3.40;86.06;96839.41;5039477;28;20072;-82
2022/01/31 07:17:30;;;;;;;1.00;1.00;;;;;;;-3.34;85.90;96840.38;5037974;28;20053;-84
2022/01/31 07:19:58;;;;;;;0.98;0.98;;;;;;;-3.30;86.14;96826.56;5029067;28;20149;-83
2022/01/31 07:22:33;;;;;;;1.13;1.10;;;;;;;-3.31;85.86;96835.53;5032882;28;20103;-83
2022/01/31 07:25:07;;;;;;;;;;;;;;;-3.27;85.74;96835.91;5046992;28;20049;-84
2022/01/31 07:27:35;;;;;;;0.73;0.73;;;;;;;-3.28;85.84;96842.22;5040740;28;20399;-83
2022/01/31 07:30:07;;;;;;;0.98;0.98;;;;;;;-3.28;85.78;96839.56;5043977;28;20048;-84
2022/01/31 07:32:40;;;;;;;1.00;1.00;;;;;;;-3.27;86.18;96833.25;5049044;28;20459;-84
2022/01/31 07:35:10;;;;;;;0.70;0.70;;;;;;;-3.24;86.08;96835.50;5047721;28;20139;-84
2022/01/31 07:37:37;;;;;;;0.90;0.90;;;;;;;-3.31;86.33;96832.09;5048971;28;20064;-82
2022/01/31 07:40:05;;;;;;;0.93;0.93;;;;;;;-3.37;86.26;96819.72;5047272;28;20066;-83
2022/01/31 07:42:32;;;;;;;0.80;0.80;;;;;;;-3.31;86.30;96837.34;5034164;28;20088;-83
2022/01/31 07:45:01;;;;;;;0.93;0.93;;;;;;;-3.39;86.57;96827.84;5043123;28;20053;-82
2022/01/31 07:47:38;;;;;;;0.90;0.90;;;;;;;-3.30;86.91;96838.97;5044350;28;20053;-82
2022/01/31 07:50:07;;;;;;;1.00;1.00;;;;;;;-3.21;86.94;96839.56;5042937;28;20049;-83
2022/01/31 07:52:36;;;;;;;1.00;1.00;;;;;;;-3.18;86.49;96839.94;5030998;28;20049;-82
2022/01/31 07:55:03;;;;;;;0.90;0.90;;;;;;;-3.15;86.66;96841.34;5033207;28;20135;-81
2022/01/31 07:57:31;;;;;;;1.27;1.08;;;;;;;-3.06;86.75;96835.63;5037251;28;20390;-82
2022/01/31 08:00:04;;;;;;;0.90;0.90;;;;;;;-3.09;86.39;96820.22;5027467;28;20073;-81
2022/01/31 08:02:39;;;;;;;0.93;0.93;;;;;;;-2.88;86.10;96827.00;5036738;28;20048;-82
2022/01/31 08:05:07;;;;;;;0.95;0.95;;;;;;;-2.80;85.93;96811.91;5041619;28;20041;-82
2022/01/31 08:07:35;;;;;;;1.00;1.00;;;;;;;-2.76;85.32;96831.56;5019330;28;20049;-82
2022/01/31 08:10:04;;;;;;;0.90;0.90;;;;;;;-2.69;85.73;96829.72;5030931;28;20045;-83
2022/01/31 08:12:34;;;;;;;0.90;0.90;;;;;;;-2.75;85.48;96817.38;5041074;28;20072;-83
2022/01/31 08:15:06;;;;;;;0.90;0.90;;;;;;;-2.73;85.17;96828.53;5043158;28;20433;-83
2022/01/31 08:17:34;;;;;;;1.00;1.00;;;;;;;-2.83;85.25;96831.63;5033292;28;20521;-83
2022/01/31 08:20:01;;;;;;;0.85;0.85;;;;;;;-2.86;85.55;96838.16;5038743;28;20528;-83
2022/01/31 08:22:29;;;;;;;0.80;0.80;;;;;;;-2.86;85.81;96834.69;5027230;28;20427;-82
2022/01/31 08:24:56;;;;;;;1.00;1.00;;;;;;;-2.81;85.54;96836.69;5042025;28;20727;-83
2022/01/31 08:27:23;;;;;;;0.80;0.80;;;;;;;-2.86;86.10;96829.41;5039632;28;20057;-83
2022/01/31 08:29:55;;;;;;;0.80;0.80;;;;;;;-2.87;86.05;96825.16;5038147;28;20235;-83
2022/01/31 08:32:43;;;;;;;0.95;0.95;;;;;;;-2.75;86.13;96841.13;5037805;28;20145;-82
2022/01/31 08:37:58;;;;;;;1.00;1.00;;;;;;;-2.77;85.93;96836.06;5045315;28;20138;-83
2022/01/31 08:40:29;;;;;;;0.80;0.80;;;;;;;-2.78;85.95;96839.72;5030300;28;20518;-84
2022/01/31 08:43:01;;;;;;;0.90;0.90;;;;;;;-2.82;86.01;96825.31;5038925;28;20582;-83
2022/01/31 08:45:30;;;;;;;0.80;0.80;;;;;;;-2.86;85.97;96817.03;5047391;28;20065;-83
2022/01/31 08:48:00;;;;;;;0.75;0.75;;;;;;;-2.79;85.50;96830.16;5046276;28;20121;-82
2022/01/31 08:50:28;;;;;;;1.00;1.00;;;;;;;-2.87;85.99;96818.03;5029250;28;20061;-84
2022/01/31 08:52:55;;;;;;;0.98;0.98;;;;;;;-2.87;86.01;96819.88;5040056;28;20072;-84
2022/01/31 08:55:23;;;;;;;0.90;0.90;;;;;;;-2.84;86.00;96816.78;5039729;28;20045;-81
2022/01/31 08:57:53;;;;;;;0.80;0.80;;;;;;;-2.73;86.30;96828.53;5034133;28;20423;-82
2022/01/31 09:00:21;;;;;;;0.90;0.90;;;;;;;-2.71;86.01;96819.38;5039370;28;20510;-82
2022/01/31 09:03:01;;;;;;;1.00;1.00;;;;;;;-2.72;86.20;96819.59;5037935;28;20405;-81
2022/01/31 09:05:28;;;;;;;0.77;0.77;;;;;;;-2.76;86.15;96818.38;5046303;28;20048;-83
2022/01/31 09:07:56;;;;;;;0.98;0.98;;;;;;;-2.75;86.35;96815.53;5073263;28;20060;-81
2022/01/31 09:10:23;;;;;;;0.70;0.70;;;;;;;-2.77;86.10;96811.50;5040725;28;20104;-83
2022/01/31 09:12:50;;;;;;;0.88;0.88;;;;;;;-2.70;86.06;96817.53;5029599;28;20045;-81
2022/01/31 09:15:17;;;;;;;0.80;0.80;;;;;;;-2.62;85.98;96820.72;5034117;28;20081;-80
2022/01/31 09:17:44;;;;;;;0.90;0.90;;;;;;;-2.70;85.76;96814.91;5044201;28;20497;-80
2022/01/31 09:20:13;;;;;;;0.80;0.80;;;;;;;-2.75;86.03;96798.88;5044098;28;20044;-81
2022/01/31 09:22:42;;;;;;;0.73;0.73;;;;;;;-2.66;85.80;96819.53;5029744;28;20054;-82
2022/01/31 09:25:11;;;;;;;0.70;0.70;;;;;;;-2.68;85.60;96810.22;4997819;28;20068;-81
2022/01/31 09:27:38;;;;;;;1.00;1.00;;;;;;;-2.56;85.35;96812.97;5039518;28;20056;-82
2022/01/31 09:30:07;;;;;;;0.90;0.90;;;;;;;-2.54;85.46;96811.72;5043312;28;20053;-83
2022/01/31 09:32:34;;;;;;;0.90;0.90;;;;;;;-2.49;85.42;96811.09;5036137;28;20095;-83
2022/01/31 09:35:02;;;;;;;1.00;1.00;;;;;;;-2.51;85.00;96810.47;5037733;28;20053;-82
2022/01/31 09:37:32;;;;;;;0.88;0.88;;;;;;;-2.44;84.95;96813.88;5035825;28;20053;-81
2022/01/31 09:40:06;;;;;;;0.90;0.90;;;;;;;-2.51;84.94;96807.84;5043191;28;20082;-81
2022/01/31 09:48:33;;;;;;;1.00;1.00;;;;;;;-2.28;84.08;96813.38;5032625;28;20058;-81
2022/01/31 09:51:19;;;;;;;0.90;0.90;;;;;;;-2.02;83.72;96820.25;5034394;28;20053;-82
2022/01/31 09:54:02;;;;;;;0.93;0.93;;;;;;;-1.97;83.04;96809.03;5034443;28;20463;-82
2022/01/31 09:56:38;;;;;;;1.00;1.00;;;;;;;-1.96;83.11;96813.28;5034777;28;20199;-82
2022/01/31 09:59:15;;;;;;;0.90;0.90;;;;;;;-1.93;83.01;96806.72;5032942;28;20050;-83
2022/01/31 10:01:52;;;;;;;1.00;1.00;;;;;;;-1.90;82.54;96804.47;5033109;28;20455;-83
2022/01/31 10:04:25;;;;;;;0.90;0.90;;;;;;;-1.84;82.46;96814.16;5032817;28;20548;-83
2022/01/31 10:06:57;;;;;;;0.70;0.70;;;;;;;-1.92;82.73;96810.97;5032952;28;20076;-83
2022/01/31 10:09:32;;;;;;;0.80;0.80;;;;;;;-2.04;82.83;96810.91;5034319;28;20156;-83
2022/01/31 10:12:08;;;;;;;0.90;0.90;;;;;;;-2.30;83.73;96812.75;5034316;28;20060;-83
2022/01/31 10:17:31;;;;;;;0.90;0.90;;;;;;;-2.50;84.74;96801.56;5034218;28;20049;-82
2022/01/31 10:20:22;;;;;;;0.80;0.80;;;;;;;-2.59;85.29;96811.56;5034094;28;20546;-82
2022/01/31 10:22:49;;;;;;;0.90;0.90;;;;;;;-2.62;85.92;96810.16;5032844;28;20443;-83
2022/01/31 10:25:18;;;;;;;1.00;1.00;;;;;;;-2.53;85.99;96804.59;5033821;28;20049;-83
2022/01/31 10:28:17;;;;;;;0.88;0.88;;;;;;;-2.37;86.31;96805.91;5034043;28;20208;-83
2022/01/31 10:30:46;;;;;;;0.88;0.88;;;;;;;-2.35;85.94;96799.41;5032473;28;20413;-83
2022/01/31 10:33:14;;;;;;;0.90;0.90;;;;;;;-2.32;85.64;96798.97;5018514;28;20099;-82
2022/01/31 10:35:43;;;;;;;1.00;1.00;;;;;;;-2.28;85.73;96797.50;5049077;28;20143;-83
2022/01/31 10:38:15;;;;;;;0.90;0.90;;;;;;;-2.30;85.50;96806.69;5043616;28;20487;-81
2022/01/31 10:50:38;;;;;;;0.93;0.93;;;;;;;-2.05;85.08;96810.09;5046634;28;20049;-83
2022/01/31 10:52:06;;;;;;;0.95;0.95;;;;;;;-2.02;85.07;96793.00;5045904;28;20057;-83
2022/01/31 10:57:22;;;;;;;0.95;0.95;;;;;;;-1.90;84.80;96793.06;5053290;28;20051;-84
2022/01/31 10:59:51;;;;;;;1.00;1.00;;;;;;;-1.88;84.53;96789.19;5053397;28;20102;-82
2022/01/31 11:02:19;;;;;;;0.90;0.90;;;;;;;-1.79;84.40;96782.59;5052702;28;20056;-83
2022/01/31 11:04:48;;;;;;;0.93;0.93;;;;;;;-1.63;84.13;96785.66;5050468;28;20080;-83
2022/01/31 11:07:21;;;;;;;1.00;1.00;;;;;;;-1.56;83.70;96781.91;5051339;28;20045;-82
2022/01/31 11:09:49;;;;;;;1.00;1.00;;;;;;;-1.58;83.55;96778.69;5042262;28;20053;-83
2022/01/31 11:12:22;;;;;;;0.93;0.93;;;;;;;-1.69;83.50;96778.63;5051689;28;20061;-83
2022/01/31 11:14:53;;;;;;;0.90;0.90;;;;;;;-1.76;83.72;96779.50;5046863;28;20045;-84
2022/01/31 11:17:20;;;;;;;1.00;1.00;;;;;;;-1.79;84.00;96784.44;5036549;28;20075;-85
2022/01/31 11:19:57;;;;;;;0.90;0.90;;;;;;;-1.84;84.13;96781.63;5052619;28;20047;-84
2022/01/31 11:22:36;;;;;;;1.00;1.00;;;;;;;-1.90;84.22;96782.50;5039790;28;20053;-84
2022/01/31 11:25:19;;;;;;;0.98;0.98;;;;;;;-1.98;84.36;96778.31;5045287;28;20057;-83
2022/01/31 11:27:58;;;;;;;0.90;0.90;;;;;;;-2.04;84.34;96784.47;5053152;28;20080;-84
2022/01/31 11:30:25;;;;;;;1.00;1.00;;;;;;;-2.09;84.83;96776.41;5045963;28;20060;-83
2022/01/31 11:32:53;;;;;;;0.80;0.80;;;;;;;-2.02;84.84;96782.44;5043348;28;20046;-82
2022/01/31 11:35:22;;;;;;;0.90;0.90;;;;;;;-2.00;85.15;96783.00;5043957;28;20064;-85
2022/01/31 11:37:50;;;;;;;0.90;0.90;;;;;;;-1.99;84.91;96782.00;5032859;28;20053;-85
2022/01/31 11:40:18;;;;;;;0.90;0.90;;;;;;;-2.11;85.27;96784.53;5032351;28;20045;-82
2022/01/31 11:42:47;;;;;;;0.85;0.85;;;;;;;-2.07;85.13;96785.72;5032618;28;20064;-83
2022/01/31 11:45:19;;;;;;;0.90;0.90;;;;;;;-2.19;85.25;96787.47;5030736;28;20059;-82
2022/01/31 11:47:54;;;;;;;0.85;0.85;;;;;;;-2.24;85.38;96789.94;5032168;28;20100;-85
2022/01/31 11:50:22;;;;;;;0.80;0.80;;;;;;;-2.32;85.71;96784.94;5030672;28;20149;-83
2022/01/31 11:52:54;;;;;;;1.00;1.00;;;;;;;-2.32;86.00;96792.88;5030780;28;20049;-81
2022/01/31 11:55:32;;;;;;;0.90;0.90;;;;;;;-2.33;86.33;96788.59;5030476;28;20373;-81
2022/01/31 11:58:00;;;;;;;0.77;0.77;;;;;;;-2.37;86.59;96793.50;5032670;28;20485;-82
2022/01/31 12:00:28;;;;;;;1.00;1.00;;;;;;;-2.34;86.70;96789.63;5030789;28;20076;-82
2022/01/31 12:03:02;;;;;;;0.73;0.73;;;;;;;-2.27;86.72;96793.84;5032240;28;20045;-81
2022/01/31 12:05:32;;;;;;;0.80;0.80;;;;;;;-2.24;86.69;96795.22;5031779;28;20077;-82
2022/01/31 12:08:09;;;;;;;0.77;0.77;;;;;;;-2.23;86.61;96783.63;4998185;28;20137;-82
2022/01/31 12:10:43;;;;;;;0.90;0.90;;;;;;;-2.17;86.49;96781.97;5031548;28;20063;-82